Time;durP1;ratioP1;P1;durP2;ratioP2;P2;SDS_P1;SDS_P2;PMS_P1;PMS_P2;Temp;Humidity;BMP_temperature;BMP_pressure;BME280_temperature;BME280_humidity;BME280_pressure;Samples;Min_cycle;Max_cycle;Signal;HPM_P1;HPM_P2
2021/11/06 00:00:00;;;;;;;7.07;2.70;;;6.30;99.90;;;;;;4906182;29;20048;-80
2021/11/06 07:00:17;;;;;;;9.40;2.97;;;5.50;99.90;;;;;;5861435;23;20881;-81
2021/11/06 07:02:44;;;;;;;8.05;3.92;;;5.50;99.90;;;;;;4887327;29;20466;-82
2021/11/06 07:05:11;;;;;;;24.52;10.98;;;5.50;99.90;;;;;;4889313;29;20052;-82
2021/11/06 07:07:38;;;;;;;17.00;11.50;;;5.50;99.90;;;;;;4889607;29;20087;-81
2021/11/06 07:10:06;;;;;;;17.75;12.02;;;5.50;99.90;;;;;;4890607;29;20581;-82
2021/11/06 07:12:33;;;;;;;7.53;5.38;;;5.50;99.90;;;;;;4874587;29;20100;-82
2021/11/06 07:15:01;;;;;;;8.07;3.83;;;5.50;99.90;;;;;;4891682;29;20084;-82
2021/11/06 07:17:33;;;;;;;13.63;7.25;;;5.50;99.90;;;;;;4891606;29;21022;-81
2021/11/06 07:20:00;;;;;;;7.75;5.63;;;5.50;99.90;;;;;;4891532;29;20056;-81
2021/11/06 07:22:27;;;;;;;10.07;4.47;;;5.50;99.90;;;;;;4890302;29;20112;-82
2021/11/06 07:24:54;;;;;;;7.40;4.80;;;5.50;99.90;;;;;;4891717;29;20080;-82
2021/11/06 07:27:21;;;;;;;7.97;3.30;;;5.50;99.90;;;;;;4890995;29;20049;-82
2021/11/06 07:29:48;;;;;;;9.05;3.50;;;5.50;99.90;;;;;;4875662;29;20128;-82
2021/11/06 07:32:15;;;;;;;8.35;3.33;;;5.50;99.90;;;;;;4889302;29;20056;-81
2021/11/06 07:34:42;;;;;;;9.05;3.55;;;5.50;99.90;;;;;;4890980;29;20064;-81
2021/11/06 07:37:09;;;;;;;7.93;3.20;;;5.50;99.90;;;;;;4887968;29;20048;-81
2021/11/06 07:39:36;;;;;;;6.80;3.97;;;5.50;99.90;;;;;;4888339;29;20660;-82
2021/11/06 07:42:04;;;;;;;7.85;5.40;;;5.50;99.90;;;;;;4887471;29;20108;-81
2021/11/06 07:44:30;;;;;;;8.55;4.70;;;5.50;99.90;;;;;;4890238;29;20104;-81
2021/11/06 07:46:58;;;;;;;9.57;5.65;;;5.50;99.90;;;;;;4888387;29;20056;-81
2021/11/06 07:49:26;;;;;;;12.32;6.65;;;5.50;99.90;;;;;;4889842;29;20045;-81
2021/11/06 07:51:59;;;;;;;8.60;4.10;;;5.50;99.90;;;;;;4889307;29;20138;-81
2021/11/06 07:54:27;;;;;;;6.10;3.67;;;5.50;99.90;;;;;;4890150;29;20124;-81
2021/11/06 07:56:55;;;;;;;8.57;3.88;;;5.60;99.90;;;;;;4888619;29;20056;-81
2021/11/06 07:59:22;;;;;;;8.43;3.65;;;5.60;99.90;;;;;;4872979;29;20045;-80
2021/11/06 08:01:48;;;;;;;8.55;3.55;;;5.60;99.90;;;;;;4888732;29;20055;-81
2021/11/06 08:04:15;;;;;;;6.20;3.65;;;5.60;99.90;;;;;;4887605;29;20076;-83
2021/11/06 08:06:42;;;;;;;8.45;3.58;;;5.60;99.90;;;;;;4874156;29;20049;-83
2021/11/06 08:09:09;;;;;;;9.07;3.80;;;5.70;99.90;;;;;;4891021;29;20119;-83
2021/11/06 08:11:36;;;;;;;11.23;3.88;;;5.70;99.90;;;;;;4889139;29;20080;-82
2021/11/06 08:14:03;;;;;;;8.18;5.13;;;5.70;99.90;;;;;;4889966;29;20049;-82
2021/11/06 08:16:30;;;;;;;9.25;6.53;;;5.80;99.90;;;;;;4888921;29;20048;-82
2021/11/06 08:18:57;;;;;;;13.48;9.80;;;5.80;99.90;;;;;;4890048;29;20517;-82
2021/11/06 08:21:24;;;;;;;8.10;5.20;;;5.80;99.90;;;;;;4888682;29;20052;-82
2021/11/06 08:23:50;;;;;;;7.32;4.85;;;5.90;99.90;;;;;;4891457;29;20147;-83
2021/11/06 08:26:17;;;;;;;9.50;5.40;;;5.90;99.90;;;;;;4888837;29;20045;-83
2021/11/06 08:28:44;;;;;;;8.80;5.05;;;6.00;99.90;;;;;;4890588;29;20077;-82
2021/11/06 08:31:11;;;;;;;8.13;4.70;;;6.10;99.90;;;;;;4872484;29;20044;-81
2021/11/06 08:33:38;;;;;;;10.57;5.32;;;6.20;99.90;;;;;;4873993;29;20528;-82
2021/11/06 08:36:05;;;;;;;11.45;8.20;;;6.20;99.90;;;;;;4889490;29;20072;-82
2021/11/06 08:38:33;;;;;;;13.77;8.00;;;6.30;99.90;;;;;;4890802;29;20049;-81
2021/11/06 08:41:01;;;;;;;10.23;5.57;;;6.40;99.90;;;;;;4889640;29;20096;-80
2021/11/06 08:43:28;;;;;;;13.35;7.00;;;6.50;99.90;;;;;;4889596;29;21006;-80
2021/11/06 08:45:56;;;;;;;12.02;7.28;;;6.60;99.90;;;;;;4889794;29;20646;-80
2021/11/06 08:48:23;;;;;;;12.77;7.07;;;6.70;99.90;;;;;;4890030;29;20053;-80
2021/11/06 08:50:50;;;;;;;10.10;5.93;;;6.80;99.90;;;;;;4888209;29;20139;-80
2021/11/06 08:53:18;;;;;;;12.07;6.75;;;6.90;99.90;;;;;;4886334;29;20160;-79
2021/11/06 08:55:45;;;;;;;13.38;6.75;;;7.00;99.90;;;;;;4887208;29;20072;-80
2021/11/06 08:58:12;;;;;;;13.82;6.38;;;7.10;99.90;;;;;;4889758;29;20134;-80
2021/11/06 09:00:44;;;;;;;8.90;4.68;;;7.30;99.90;;;;;;4887465;29;20064;-79
2021/11/06 09:03:21;;;;;;;12.52;6.68;;;7.40;99.90;;;;;;4890735;29;20612;-80
2021/11/06 09:05:51;;;;;;;12.75;5.25;;;7.60;99.90;;;;;;4887661;29;20114;-80
2021/11/06 09:08:42;;;;;;;15.85;8.15;;;7.70;99.90;;;;;;4886969;29;20076;-80
2021/11/06 09:11:11;;;;;;;6.55;5.00;;;7.90;99.90;;;;;;4886459;29;20540;-79
2021/11/06 09:13:39;;;;;;;9.55;4.63;;;8.10;99.90;;;;;;4885981;29;20056;-79
2021/11/06 09:16:09;;;;;;;12.43;4.68;;;8.20;99.90;;;;;;4886882;29;20064;-82
2021/11/06 09:18:38;;;;;;;11.57;5.30;;;8.40;99.90;;;;;;4892735;29;20052;-80
2021/11/06 09:21:07;;;;;;;6.88;3.72;;;8.60;99.90;;;;;;4891039;29;20044;-80
2021/11/06 09:23:34;;;;;;;8.80;4.40;;;8.80;99.90;;;;;;4893802;29;20115;-80
2021/11/06 09:26:02;;;;;;;7.60;4.35;;;8.90;99.90;;;;;;4892148;29;20124;-80
2021/11/06 09:28:29;;;;;;;4.72;2.85;;;9.10;99.90;;;;;;4893117;29;20044;-80
2021/11/06 09:30:57;;;;;;;7.30;2.95;;;9.20;99.90;;;;;;4892033;29;20080;-80
2021/11/06 09:33:24;;;;;;;7.68;3.75;;;9.30;99.90;;;;;;4893449;29;20147;-81
2021/11/06 09:35:51;;;;;;;8.10;3.67;;;9.40;99.90;;;;;;4873705;29;20060;-80
2021/11/06 09:38:17;;;;;;;7.05;4.07;;;9.50;99.90;;;;;;4889916;29;20087;-81
2021/11/06 09:40:45;;;;;;;5.80;3.70;;;9.60;99.90;;;;;;4892041;29;20052;-79
2021/11/06 09:43:15;;;;;;;5.57;3.30;;;9.60;99.90;;;;;;4891822;29;20048;-80
2021/11/06 09:45:44;;;;;;;7.38;3.72;;;9.70;99.90;;;;;;4888812;29;20144;-81
2021/11/06 09:48:12;;;;;;;8.07;3.60;;;9.80;99.90;;;;;;4893220;29;20104;-81
2021/11/06 09:50:39;;;;;;;6.03;2.75;;;9.80;99.90;;;;;;4888810;29;20083;-79
2021/11/06 09:53:06;;;;;;;8.52;4.20;;;9.90;99.90;;;;;;4892709;29;20080;-80
2021/11/06 09:55:33;;;;;;;6.95;4.25;;;9.90;99.90;;;;;;4890073;29;20525;-80
2021/11/06 09:58:00;;;;;;;7.20;4.10;;;10.00;99.90;;;;;;4893143;29;20052;-79
2021/11/06 10:00:27;;;;;;;7.40;4.00;;;10.00;99.90;;;;;;4888526;29;20588;-80
2021/11/06 10:02:56;;;;;;;5.47;2.70;;;10.00;99.90;;;;;;4893693;29;20052;-80
2021/11/06 10:05:52;;;;;;;5.95;3.00;;;10.00;99.90;;;;;;4891292;29;20047;-80
2021/11/06 10:08:29;;;;;;;5.18;3.80;;;10.10;99.90;;;;;;4890600;29;20061;-80
2021/11/06 10:11:00;;;;;;;8.50;4.57;;;10.10;99.90;;;;;;4890800;29;20100;-80
2021/11/06 10:13:28;;;;;;;10.05;4.47;;;10.20;99.90;;;;;;4890622;29;20052;-80
2021/11/06 10:15:58;;;;;;;6.22;3.65;;;10.30;99.90;;;;;;4895007;29;20510;-79
2021/11/06 10:18:27;;;;;;;8.82;4.65;;;10.30;99.90;;;;;;4895302;29;20044;-80
2021/11/06 10:21:04;;;;;;;7.75;4.55;;;10.40;99.90;;;;;;4889436;29;20050;-80
2021/11/06 10:23:36;;;;;;;8.63;5.60;;;10.50;99.90;;;;;;4894546;29;20044;-81
2021/11/06 10:26:08;;;;;;;5.32;3.60;;;10.50;99.90;;;;;;4895749;29;20131;-79
2021/11/06 10:28:35;;;;;;;11.07;4.97;;;10.60;99.90;;;;;;4895597;29;20421;-80
2021/11/06 10:31:04;;;;;;;6.07;4.50;;;10.60;99.90;;;;;;4895101;29;20407;-78
2021/11/06 10:33:42;;;;;;;6.75;3.65;;;10.70;99.90;;;;;;4895960;29;20044;-80
2021/11/06 10:36:23;;;;;;;5.95;3.67;;;10.70;99.90;;;;;;4895794;29;20466;-80
2021/11/06 10:39:08;;;;;;;8.85;5.28;;;10.80;99.90;;;;;;4896522;29;20080;-80
2021/11/06 10:41:39;;;;;;;7.50;4.13;;;10.80;99.90;;;;;;4895170;29;20041;-80
2021/11/06 10:44:07;;;;;;;9.02;5.20;;;10.90;99.90;;;;;;4895313;29;20548;-79
2021/11/06 10:46:34;;;;;;;7.05;4.32;;;11.00;99.90;;;;;;4891006;29;20049;-80
2021/11/06 10:49:03;;;;;;;5.43;3.90;;;11.00;99.90;;;;;;4896063;29;20041;-80
2021/11/06 10:51:30;;;;;;;6.38;4.40;;;11.10;99.90;;;;;;4895523;29;20485;-80
2021/11/06 10:54:01;;;;;;;7.22;4.57;;;11.10;99.90;;;;;;4893291;29;20045;-79
2021/11/06 10:56:32;;;;;;;6.75;4.40;;;11.20;99.90;;;;;;4888029;29;20084;-80
2021/11/06 10:59:21;;;;;;;7.93;4.28;;;11.20;99.90;;;;;;4888235;29;20053;-80
2021/11/06 11:01:53;;;;;;;8.13;4.68;;;11.30;99.90;;;;;;4891689;29;20045;-81
2021/11/06 11:04:21;;;;;;;7.57;3.80;;;11.30;99.90;;;;;;4889724;29;20049;-79
2021/11/06 11:06:54;;;;;;;5.75;4.13;;;11.40;99.90;;;;;;4882723;29;20100;-79
2021/11/06 11:09:25;;;;;;;10.75;4.28;;;11.50;99.90;;;;;;4886635;29;20052;-79
2021/11/06 11:11:56;;;;;;;5.30;3.88;;;11.50;99.90;;;;;;4881337;29;20045;-80
2021/11/06 11:14:25;;;;;;;8.57;4.10;;;11.60;99.90;;;;;;4884682;29;20104;-80
2021/11/06 11:16:58;;;;;;;6.65;3.38;;;11.70;99.90;;;;;;4887113;29;20068;-81
2021/11/06 11:19:38;;;;;;;8.93;3.30;;;11.70;99.90;;;;;;4885707;29;20498;-80
2021/11/06 11:22:24;;;;;;;6.07;3.03;;;11.80;99.90;;;;;;4885893;29;20100;-82
2021/11/06 11:24:54;;;;;;;6.68;2.85;;;11.90;99.90;;;;;;4886734;29;20053;-81
2021/11/06 11:27:41;;;;;;;4.15;2.85;;;12.00;99.90;;;;;;4886410;29;20829;-80
2021/11/06 11:30:09;;;;;;;4.55;2.80;;;12.10;99.90;;;;;;4885207;29;20434;-80
2021/11/06 11:32:36;;;;;;;5.78;2.65;;;12.20;99.90;;;;;;4885991;29;20044;-80
2021/11/06 11:35:03;;;;;;;5.72;2.70;;;12.30;99.90;;;;;;4886961;29;20048;-80
2021/11/06 11:37:30;;;;;;;4.05;2.85;;;12.40;99.90;;;;;;4884346;29;20128;-80
2021/11/06 11:40:00;;;;;;;7.35;2.50;;;12.40;99.90;;;;;;4886700;29;20048;-81
2021/11/06 11:42:49;;;;;;;6.53;2.40;;;12.50;99.90;;;;;;4884978;29;20101;-80
2021/11/06 11:45:45;;;;;;;6.30;2.22;;;12.50;99.90;;;;;;4884828;29;20053;-80
2021/11/06 11:48:18;;;;;;;4.70;2.10;;;12.60;99.90;;;;;;4887795;29;20052;-80
2021/11/06 11:50:48;;;;;;;5.43;2.00;;;12.70;99.90;;;;;;4885675;29;20494;-79
2021/11/06 11:53:29;;;;;;;2.90;1.70;;;12.80;99.90;;;;;;4877875;29;20057;-80
2021/11/06 11:56:05;;;;;;;5.72;1.65;;;12.90;99.90;;;;;;4883172;29;20072;-79
2021/11/06 11:58:38;;;;;;;8.50;1.17;;;12.90;99.90;;;;;;4889374;29;20045;-79
2021/11/06 12:01:07;;;;;;;5.75;1.02;;;12.90;99.90;;;;;;4883478;29;20048;-79
2021/11/06 12:03:41;;;;;;;4.00;0.93;;;13.00;99.90;;;;;;4872201;29;20076;-80
2021/11/06 12:06:34;;;;;;;4.50;1.00;;;13.10;99.90;;;;;;4887659;29;20085;-80
2021/11/06 12:09:20;;;;;;;5.25;0.88;;;13.10;99.90;;;;;;4889226;29;20054;-80
2021/11/06 12:11:51;;;;;;;3.70;0.88;;;13.30;99.90;;;;;;4886898;29;20112;-80
2021/11/06 12:14:29;;;;;;;3.78;0.93;;;13.40;99.90;;;;;;4888900;29;20116;-80
2021/11/06 12:17:02;;;;;;;5.05;0.90;;;13.50;99.90;;;;;;4886024;29;20128;-81
2021/11/06 12:19:40;;;;;;;3.58;1.05;;;13.60;99.90;;;;;;4888647;29;20064;-81
2021/11/06 12:22:08;;;;;;;7.68;1.00;;;13.70;99.90;;;;;;4887563;29;20104;-81
2021/11/06 12:24:35;;;;;;;8.10;1.27;;;13.70;99.90;;;;;;4887420;29;20133;-80
2021/11/06 12:27:08;;;;;;;4.78;0.75;;;13.70;99.90;;;;;;4889195;29;20128;-80
2021/11/06 12:29:48;;;;;;;4.35;1.05;;;13.70;99.90;;;;;;4873574;29;20052;-80
2021/11/06 12:32:22;;;;;;;8.75;1.30;;;13.60;99.90;;;;;;4886206;29;20076;-80
2021/11/06 12:35:12;;;;;;;5.43;1.08;;;13.60;99.90;;;;;;4891372;29;20470;-81
2021/11/06 12:37:39;;;;;;;6.07;0.90;;;13.60;99.90;;;;;;4857743;29;20800;-81
2021/11/06 12:40:31;;;;;;;5.40;0.82;;;13.60;99.90;;;;;;4889940;29;20148;-79
2021/11/06 12:43:15;;;;;;;4.03;1.10;;;13.60;99.90;;;;;;4887043;29;20056;-78
2021/11/06 12:45:45;;;;;;;3.97;1.00;;;13.70;99.90;;;;;;4888051;29;20049;-80
2021/11/06 12:48:40;;;;;;;4.45;0.70;;;13.70;99.90;;;;;;4888286;29;20056;-78
2021/11/06 12:51:19;;;;;;;7.10;0.82;;;13.80;99.90;;;;;;4887785;29;20060;-78
2021/11/06 12:53:53;;;;;;;2.53;0.80;;;13.80;99.90;;;;;;4895545;29;20048;-78
2021/11/06 12:56:23;;;;;;;4.20;0.90;;;13.90;99.90;;;;;;4894238;29;20512;-79
2021/11/06 12:59:06;;;;;;;3.85;0.77;;;13.90;99.90;;;;;;4892487;29;20139;-80
2021/11/06 13:01:35;;;;;;;3.60;1.00;;;14.00;99.90;;;;;;4894294;29;20045;-79
2021/11/06 13:04:04;;;;;;;2.63;0.90;;;14.10;99.90;;;;;;4879272;29;20045;-80
2021/11/06 13:06:35;;;;;;;3.60;0.80;;;14.10;99.90;;;;;;4893764;29;20061;-80
2021/11/06 13:09:17;;;;;;;2.95;0.80;;;14.20;99.90;;;;;;4890681;29;20100;-80
2021/11/06 13:11:57;;;;;;;5.35;1.02;;;14.20;99.90;;;;;;4890622;29;20049;-80
2021/11/06 13:14:30;;;;;;;2.65;0.70;;;14.20;99.90;;;;;;4892937;29;20198;-80
2021/11/06 13:17:06;;;;;;;3.90;0.80;;;14.20;99.90;;;;;;4893127;29;20545;-78
2021/11/06 13:19:47;;;;;;;2.35;0.65;;;14.10;99.90;;;;;;4895927;29;20049;-80
2021/11/06 13:22:35;;;;;;;3.88;0.80;;;14.10;99.90;;;;;;4886539;29;20108;-79
2021/11/06 13:25:10;;;;;;;5.15;1.00;;;14.10;99.90;;;;;;4894547;29;20482;-79
2021/11/06 13:27:53;;;;;;;2.15;0.73;;;14.00;99.90;;;;;;4891399;29;20040;-78
2021/11/06 13:30:30;;;;;;;7.78;0.85;;;14.10;99.90;;;;;;4892754;29;20144;-79
2021/11/06 13:33:11;;;;;;;4.47;1.00;;;14.10;99.90;;;;;;4891885;29;20147;-81
2021/11/06 13:35:48;;;;;;;4.80;0.80;;;14.20;99.90;;;;;;4894070;29;20425;-81
2021/11/06 13:38:20;;;;;;;4.00;1.08;;;14.20;99.90;;;;;;4891735;29;20159;-81
2021/11/06 13:40:59;;;;;;;3.88;0.90;;;14.30;99.90;;;;;;4893428;29;20045;-80
2021/11/06 13:43:48;;;;;;;2.47;0.85;;;14.20;99.90;;;;;;4894878;29;20585;-80
2021/11/06 13:46:19;;;;;;;5.28;0.77;;;14.20;99.90;;;;;;4888217;29;20052;-82
2021/11/06 13:49:16;;;;;;;4.03;1.15;;;14.20;99.90;;;;;;4895620;29;20084;-80
2021/11/06 13:51:55;;;;;;;6.15;1.13;;;14.20;99.90;;;;;;4883208;29;20076;-80
2021/11/06 13:54:29;;;;;;;3.38;0.90;;;14.10;99.90;;;;;;4906527;29;20044;-82
2021/11/06 13:57:18;;;;;;;2.28;0.70;;;14.10;99.90;;;;;;4899699;29;20060;-81
2021/11/06 13:59:48;;;;;;;15.52;4.63;;;14.10;99.90;;;;;;4883490;29;20593;-79
2021/11/06 14:02:29;;;;;;;14.85;1.48;;;14.00;99.90;;;;;;4901834;29;20104;-81
2021/11/06 14:05:01;;;;;;;3.45;0.82;;;14.00;99.90;;;;;;4896197;29;20620;-81
2021/11/06 14:07:39;;;;;;;4.10;1.10;;;13.90;99.90;;;;;;4895798;29;20100;-84
2021/11/06 14:10:09;;;;;;;7.13;1.02;;;13.80;99.90;;;;;;4895829;29;20466;-81
2021/11/06 14:12:46;;;;;;;6.80;1.83;;;13.80;99.90;;;;;;4896565;29;20087;-82
2021/11/06 14:15:24;;;;;;;6.75;1.20;;;13.70;99.90;;;;;;4879901;29;20518;-82
2021/11/06 14:17:54;;;;;;;4.70;1.50;;;13.70;99.90;;;;;;4896797;29;20053;-83
2021/11/06 14:20:32;;;;;;;15.20;3.03;;;13.70;99.90;;;;;;4896116;29;20108;-82
2021/11/06 14:22:59;;;;;;;8.73;2.92;;;13.70;99.90;;;;;;4896096;29;20072;-82
2021/11/06 14:25:28;;;;;;;5.90;2.00;;;13.70;99.90;;;;;;4895597;29;20068;-82
2021/11/06 14:28:07;;;;;;;7.60;3.03;;;13.80;99.90;;;;;;4892281;29;20076;-81
2021/11/06 14:30:54;;;;;;;;;;;13.80;99.90;;;;;;4893248;29;20374;-83
2021/11/06 14:33:26;;;;;;;14.13;4.75;;;13.70;99.90;;;;;;4894756;29;19999;-81
2021/11/06 14:36:20;;;;;;;7.95;1.08;;;13.70;99.90;;;;;;4892576;29;20609;-82
2021/11/06 14:38:49;;;;;;;32.10;13.00;;;13.60;99.90;;;;;;4893384;29;20075;-80
2021/11/06 14:41:17;;;;;;;10.43;2.50;;;13.60;99.90;;;;;;4889721;29;20060;-81
2021/11/06 14:43:56;;;;;;;4.90;1.40;;;13.60;99.90;;;;;;4876093;29;20040;-82
2021/11/06 14:46:24;;;;;;;12.07;4.53;;;13.50;99.90;;;;;;4894186;29;20120;-81
2021/11/06 14:48:56;;;;;;;1.88;0.70;;;13.50;99.90;;;;;;4892706;29;20513;-81
2021/11/06 14:51:24;;;;;;;4.22;0.85;;;13.50;99.90;;;;;;4891913;29;20045;-83
2021/11/06 14:53:56;;;;;;;8.52;1.90;;;13.40;99.90;;;;;;4894517;29;20052;-83
2021/11/06 14:56:38;;;;;;;6.13;1.80;;;13.40;99.90;;;;;;4890782;29;20053;-82
2021/11/06 14:59:06;;;;;;;5.35;2.17;;;13.40;99.90;;;;;;4880541;29;20352;-83
2021/11/06 15:01:49;;;;;;;25.23;6.78;;;13.40;99.90;;;;;;4890142;29;20080;-83
2021/11/06 15:04:16;;;;;;;18.35;3.33;;;13.40;99.90;;;;;;4891302;29;20045;-86
2021/11/06 15:07:03;;;;;;;3.25;1.00;;;13.40;99.90;;;;;;4890883;29;20528;-80
2021/11/06 15:09:30;;;;;;;2.17;0.77;;;13.40;99.90;;;;;;4894706;29;20045;-81
2021/11/06 15:11:59;;;;;;;12.40;3.90;;;13.30;99.90;;;;;;4890935;29;20048;-82
2021/11/06 15:14:26;;;;;;;45.47;14.18;;;13.30;99.90;;;;;;4887265;29;20041;-82
2021/11/06 15:16:53;;;;;;;6.50;1.80;;;13.20;99.90;;;;;;4890954;29;20049;-81
2021/11/06 15:19:20;;;;;;;4.82;0.88;;;13.20;99.90;;;;;;4893788;29;20661;-81
2021/11/06 15:21:47;;;;;;;4.57;0.90;;;13.20;99.90;;;;;;4888428;29;20052;-81
2021/11/06 15:24:16;;;;;;;3.33;0.90;;;13.20;99.90;;;;;;4891385;29;20060;-81
2021/11/06 15:26:43;;;;;;;3.53;1.17;;;13.20;99.90;;;;;;4885669;29;20049;-79
2021/11/06 15:29:11;;;;;;;3.65;0.90;;;13.20;99.90;;;;;;4888359;29;20593;-80
2021/11/06 15:31:38;;;;;;;4.35;1.08;;;13.10;99.90;;;;;;4888470;29;20048;-79
2021/11/06 15:34:05;;;;;;;4.20;0.95;;;13.10;99.90;;;;;;4887720;29;20052;-78
2021/11/06 15:36:35;;;;;;;2.85;0.90;;;13.10;99.90;;;;;;4888717;29;20059;-80
2021/11/06 15:39:04;;;;;;;3.35;0.70;;;13.00;99.90;;;;;;4890766;29;20449;-79
2021/11/06 15:41:31;;;;;;;;;;;13.00;99.90;;;;;;4888500;29;20053;-79
2021/11/06 15:43:57;;;;;;;7.60;1.17;;;12.90;99.90;;;;;;4880958;29;20018;-80
2021/11/06 15:46:25;;;;;;;1.98;0.82;;;12.90;99.90;;;;;;4888086;29;20056;-78
2021/11/06 15:48:52;;;;;;;7.88;0.95;;;12.80;99.90;;;;;;4878983;29;20881;-80
2021/11/06 15:51:40;;;;;;;3.20;0.90;;;12.80;99.90;;;;;;4888979;29;20065;-79
2021/11/06 15:54:08;;;;;;;3.20;0.77;;;12.80;99.90;;;;;;4889200;29;20056;-78
2021/11/06 15:56:36;;;;;;;3.60;0.98;;;12.80;99.90;;;;;;4889156;29;20048;-79
2021/11/06 15:59:08;;;;;;;2.38;0.98;;;12.80;99.90;;;;;;4888500;29;20530;-79
2021/11/06 16:01:35;;;;;;;3.97;1.30;;;12.80;99.90;;;;;;4887335;29;20081;-80
2021/11/06 16:04:03;;;;;;;2.05;0.75;;;12.70;99.90;;;;;;4886821;29;20104;-79
2021/11/06 16:06:30;;;;;;;4.35;1.08;;;12.70;99.90;;;;;;4887911;29;20081;-79
2021/11/06 16:08:58;;;;;;;3.45;1.05;;;12.70;99.90;;;;;;4890079;29;20533;-78
2021/11/06 16:11:25;;;;;;;2.78;0.90;;;12.70;99.90;;;;;;4887483;29;20080;-79
2021/11/06 16:13:53;;;;;;;7.35;1.60;;;12.70;99.90;;;;;;4889161;29;20049;-80
2021/11/06 16:16:22;;;;;;;6.18;1.27;;;12.60;99.90;;;;;;4887725;29;20422;-80
2021/11/06 16:18:56;;;;;;;7.28;1.10;;;12.70;99.90;;;;;;4890257;29;20502;-80
2021/11/06 16:21:24;;;;;;;9.23;1.02;;;12.70;99.90;;;;;;4871541;29;20474;-78
2021/11/06 16:23:51;;;;;;;3.80;1.08;;;12.60;99.90;;;;;;4890058;29;20061;-79
2021/11/06 16:26:19;;;;;;;5.40;1.00;;;12.60;99.90;;;;;;4887059;29;20102;-78
2021/11/06 16:28:49;;;;;;;3.50;0.80;;;12.60;99.90;;;;;;4889237;29;20112;-79
2021/11/06 16:31:18;;;;;;;3.28;0.93;;;12.50;99.90;;;;;;4887986;29;20048;-79
2021/11/06 16:33:45;;;;;;;2.78;0.77;;;12.50;99.90;;;;;;4889417;29;20079;-79
2021/11/06 16:36:17;;;;;;;3.20;0.80;;;12.50;99.90;;;;;;4888170;29;20494;-79
2021/11/06 16:38:46;;;;;;;3.78;0.93;;;12.40;99.90;;;;;;4889230;29;20083;-80
2021/11/06 16:41:13;;;;;;;;;;;12.40;99.90;;;;;;4887457;29;20072;-79
2021/11/06 16:43:40;;;;;;;4.30;1.05;;;12.40;99.90;;;;;;4886584;29;19927;-80
2021/11/06 16:46:08;;;;;;;3.38;1.02;;;12.40;99.90;;;;;;4885243;29;20068;-80
2021/11/06 16:48:37;;;;;;;3.53;0.85;;;12.30;99.90;;;;;;4871437;29;20108;-80
2021/11/06 16:51:05;;;;;;;6.22;1.20;;;12.30;99.90;;;;;;4870774;29;20076;-79
2021/11/06 16:53:32;;;;;;;;;;;12.30;99.90;;;;;;4887233;29;20124;-79
2021/11/06 16:55:59;;;;;;;5.70;1.10;;;12.20;99.90;;;;;;4888497;29;20182;-80
2021/11/06 16:58:26;;;;;;;3.78;1.45;;;12.20;99.90;;;;;;4874694;29;20073;-82
2021/11/06 17:00:54;;;;;;;1.30;0.80;;;12.20;99.90;;;;;;4892025;29;20074;-80
2021/11/06 17:03:22;;;;;;;2.28;0.90;;;12.20;99.90;;;;;;4887591;29;20108;-81
2021/11/06 17:05:49;;;;;;;5.82;1.20;;;12.20;99.90;;;;;;4886864;29;20112;-80
2021/11/06 17:10:47;;;;;;;3.92;1.00;;;12.20;99.90;;;;;;4888633;29;20116;-80
2021/11/06 17:13:15;;;;;;;3.70;1.10;;;12.10;99.90;;;;;;4885482;29;20062;-79
2021/11/06 17:15:42;;;;;;;6.88;0.93;;;12.10;99.90;;;;;;4888670;29;20060;-80
2021/11/06 17:18:29;;;;;;;5.00;1.35;;;12.10;99.90;;;;;;4885001;29;20148;-80
2021/11/06 17:20:56;;;;;;;3.42;1.02;;;12.10;99.90;;;;;;4888326;29;20048;-80
2021/11/06 17:23:23;;;;;;;5.10;1.27;;;12.10;99.90;;;;;;4883682;29;20402;-79
2021/11/06 17:25:50;;;;;;;2.70;1.00;;;12.10;99.90;;;;;;4882814;29;20123;-80
2021/11/06 17:28:18;;;;;;;2.10;1.42;;;12.10;99.90;;;;;;4887169;29;20514;-81
2021/11/06 17:30:45;;;;;;;5.85;1.38;;;12.10;99.90;;;;;;4888636;29;20112;-80
2021/11/06 17:33:12;;;;;;;5.63;1.38;;;12.10;99.90;;;;;;4880767;29;20838;-80
2021/11/06 17:35:40;;;;;;;7.00;1.63;;;12.10;99.90;;;;;;4881716;29;20053;-83
2021/11/06 17:38:07;;;;;;;5.20;1.75;;;12.00;99.90;;;;;;4878683;29;20505;-80
2021/11/06 17:40:35;;;;;;;4.68;1.35;;;12.00;99.90;;;;;;4881412;29;20044;-80
2021/11/06 17:43:02;;;;;;;5.28;1.40;;;12.00;99.90;;;;;;4867175;29;20064;-80
2021/11/06 17:45:30;;;;;;;6.93;1.30;;;12.00;99.90;;;;;;4884117;29;20079;-81
2021/11/06 17:47:59;;;;;;;5.78;1.85;;;12.00;99.90;;;;;;4886152;29;20123;-80
2021/11/06 17:55:45;;;;;;;5.35;1.27;;;12.00;99.90;;;;;;4889000;29;20048;-80
2021/11/06 17:58:13;;;;;;;2.17;1.00;;;12.00;99.90;;;;;;4886791;29;20845;-80
2021/11/06 18:00:43;;;;;;;5.38;1.20;;;12.00;99.90;;;;;;4887226;29;20052;-81
2021/11/06 18:03:10;;;;;;;4.13;1.10;;;11.90;99.90;;;;;;4880099;29;20136;-81
2021/11/06 18:05:37;;;;;;;5.05;1.38;;;11.90;99.90;;;;;;4884720;29;20112;-80
2021/11/06 18:08:05;;;;;;;4.75;1.10;;;11.90;99.90;;;;;;4884394;29;20072;-81
2021/11/06 18:10:32;;;;;;;6.07;1.10;;;11.90;99.90;;;;;;4885102;29;20053;-80
2021/11/06 18:12:59;;;;;;;4.95;0.90;;;11.90;99.90;;;;;;4881082;29;20696;-80
2021/11/06 18:15:26;;;;;;;5.10;1.67;;;11.90;99.90;;;;;;4885073;29;20433;-81
2021/11/06 18:17:53;;;;;;;3.60;1.20;;;11.90;99.90;;;;;;4886815;29;20076;-80
2021/11/06 18:20:21;;;;;;;2.67;1.13;;;11.90;99.90;;;;;;4886117;29;20169;-80
2021/11/06 18:22:48;;;;;;;12.95;9.63;;;11.90;99.90;;;;;;4885255;29;20067;-80
2021/11/06 18:25:15;;;;;;;4.43;2.13;;;11.90;99.90;;;;;;4887442;29;20072;-80
2021/11/06 18:27:47;;;;;;;4.97;1.30;;;11.90;99.90;;;;;;4885122;29;20052;-80
2021/11/06 18:30:15;;;;;;;4.13;1.00;;;11.90;99.90;;;;;;4886026;29;20093;-81
2021/11/06 18:32:42;;;;;;;3.20;0.85;;;11.80;99.90;;;;;;4876932;29;20089;-80
2021/11/06 18:35:11;;;;;;;3.10;0.90;;;11.80;99.90;;;;;;4879420;29;20594;-81
2021/11/06 18:37:39;;;;;;;2.92;1.00;;;11.80;99.90;;;;;;4878250;29;20101;-80
2021/11/06 18:40:08;;;;;;;5.85;1.05;;;11.80;99.90;;;;;;4883384;29;20052;-80
2021/11/06 18:42:35;;;;;;;3.72;0.90;;;11.80;99.90;;;;;;4880698;29;20334;-80
2021/11/06 18:45:04;;;;;;;3.60;1.17;;;11.80;99.90;;;;;;4875726;29;20045;-80
2021/11/06 18:47:32;;;;;;;3.58;0.88;;;11.80;99.90;;;;;;4878389;29;20045;-81
2021/11/06 18:49:59;;;;;;;3.17;2.13;;;11.70;99.90;;;;;;4877255;29;20526;-80
2021/11/06 18:52:26;;;;;;;3.08;1.00;;;11.70;99.90;;;;;;4879574;29;20124;-80
2021/11/06 18:54:54;;;;;;;3.50;1.55;;;11.80;99.90;;;;;;4876380;29;20124;-81
2021/11/06 18:57:21;;;;;;;2.88;1.10;;;11.70;99.90;;;;;;4873395;29;20111;-80
2021/11/06 18:59:50;;;;;;;4.18;0.90;;;11.70;99.90;;;;;;4877634;29;20049;-80
2021/11/06 19:02:17;;;;;;;2.92;1.00;;;11.70;99.90;;;;;;4876271;29;20061;-79
2021/11/06 19:04:46;;;;;;;1.55;0.63;;;11.60;99.90;;;;;;4880519;29;20053;-81
2021/11/06 19:07:13;;;;;;;3.80;0.90;;;11.60;99.90;;;;;;4881059;29;20085;-80
2021/11/06 19:09:40;;;;;;;3.03;1.00;;;11.60;99.90;;;;;;4880659;29;20097;-81
2021/11/06 19:12:07;;;;;;;5.70;1.45;;;11.50;99.90;;;;;;4877959;29;20056;-79
2021/11/06 19:14:35;;;;;;;3.92;2.08;;;11.50;99.90;;;;;;4884249;29;20052;-80
2021/11/06 19:17:04;;;;;;;3.85;1.40;;;11.40;99.90;;;;;;4879226;29;20521;-80
2021/11/06 19:19:31;;;;;;;3.50;1.35;;;11.40;99.90;;;;;;4878062;29;20184;-80
2021/11/06 19:21:58;;;;;;;4.03;1.25;;;11.40;99.90;;;;;;4879798;29;20064;-80
2021/11/06 19:24:29;;;;;;;2.25;0.95;;;11.30;99.90;;;;;;4888874;29;20052;-80
2021/11/06 19:27:03;;;;;;;3.78;1.40;;;11.30;99.90;;;;;;4884794;29;20131;-79
2021/11/06 19:29:30;;;;;;;6.32;2.97;;;11.20;99.90;;;;;;4879108;29;20077;-81
2021/11/06 19:31:57;;;;;;;5.82;1.63;;;11.20;99.90;;;;;;4878927;29;20806;-80
2021/11/06 19:34:24;;;;;;;3.70;1.05;;;11.10;99.90;;;;;;4880508;29;20553;-79
2021/11/06 19:36:51;;;;;;;4.30;1.15;;;11.10;99.90;;;;;;4877954;29;20076;-80
2021/11/06 19:39:19;;;;;;;2.58;1.20;;;11.00;99.90;;;;;;4884107;29;20121;-80
2021/11/06 19:41:47;;;;;;;2.33;0.80;;;11.00;99.90;;;;;;4886667;29;20421;-80
2021/11/06 19:44:15;;;;;;;2.78;1.17;;;10.90;99.90;;;;;;4886290;29;20049;-79
2021/11/06 19:46:49;;;;;;;4.70;1.17;;;10.90;99.90;;;;;;4884705;29;20111;-81
2021/11/06 19:49:19;;;;;;;3.88;1.17;;;10.80;99.90;;;;;;4875943;29;20156;-80
2021/11/06 19:51:47;;;;;;;3.63;1.20;;;10.80;99.90;;;;;;4876772;29;20572;-80
2021/11/06 19:54:16;;;;;;;2.45;1.50;;;10.80;99.90;;;;;;4874972;29;20052;-81
2021/11/06 19:56:43;;;;;;;4.80;1.33;;;10.70;99.90;;;;;;4877102;29;20100;-80
2021/11/06 19:59:12;;;;;;;5.55;2.00;;;10.70;99.90;;;;;;4874564;29;20481;-80
2021/11/06 20:01:40;;;;;;;;;;;10.60;99.90;;;;;;4878864;29;20044;-81
2021/11/06 20:04:07;;;;;;;6.97;2.13;;;10.60;99.90;;;;;;4877604;29;19955;-80
2021/11/06 20:06:36;;;;;;;4.13;1.40;;;10.60;99.90;;;;;;4878562;29;20639;-81
2021/11/06 20:09:05;;;;;;;6.63;1.50;;;10.50;99.90;;;;;;4876119;29;20045;-81
2021/11/06 20:11:35;;;;;;;;;;;10.50;99.90;;;;;;4881315;29;20109;-81
2021/11/06 20:14:07;;;;;;;4.47;2.10;;;10.50;99.90;;;;;;4880290;29;20471;-81